X  Kiinni Metar Aviation säätiedot     LYNI Nis Airport
Lämpötila
48°F Lämpötila
39°F Kastepiste
71% Kosteus



Tuuli
12 MPH
19 KM/T
5 M/S
10 KTS



90°
I
Nykyiset olosuhteet

Kirkas Kirkas
Paine 1022.92 (hPa) - 30.21 (inHg)
Näkyvyys 6.2 (maili) - 10 (km)
Lentokenttä
Lentokentän koodi LYNI

Sijainti: Nis Airport
Etäisyys: 63 (mi)

Metar:
LYNI 051530Z 09010KT CAVOK 09/04 Q1023 NOSIG

Aika: 05-12-2022 16:30 CET